Time;durP1;ratioP1;P1;durP2;ratioP2;P2;SDS_P1;SDS_P2;PMS_P1;PMS_P2;Temp;Humidity;BMP_temperature;BMP_pressure;BME280_temperature;BME280_humidity;BME280_pressure;Samples;Min_cycle;Max_cycle;Signal;HPM_P1;HPM_P2
2022/07/16 00:03:47;;;;;;;3.38;2.38;;;;;;;15.06;50.12;96090.50;5036612;28;20237;-79
2022/07/16 00:06:12;;;;;;;3.58;2.53;;;;;;;15.00;49.94;96100.63;5034041;28;20222;-79
2022/07/16 00:08:38;;;;;;;4.25;2.60;;;;;;;14.89;51.00;96095.72;5018860;28;20174;-79
2022/07/16 00:11:03;;;;;;;4.88;3.00;;;;;;;14.89;50.55;96094.88;5051142;28;20213;-79
2022/07/16 00:13:28;;;;;;;4.35;3.10;;;;;;;14.87;50.75;96097.69;5054333;28;20181;-79
2022/07/16 00:15:54;;;;;;;5.55;2.88;;;;;;;14.84;51.05;96098.00;5037592;28;20200;-79
2022/07/16 00:21:04;;;;;;;5.82;2.83;;;;;;;14.82;51.08;96088.66;5040261;28;20276;-79
2022/07/16 00:23:29;;;;;;;4.43;2.80;;;;;;;14.78;50.90;96096.03;5054720;28;20186;-79
2022/07/16 00:25:54;;;;;;;6.18;2.50;;;;;;;14.77;50.53;96098.81;5023429;28;20206;-79
2022/07/16 00:28:20;;;;;;;6.57;2.80;;;;;;;14.70;51.16;96088.97;5035704;28;20234;-79
2022/07/16 00:30:45;;;;;;;2.85;2.58;;;;;;;14.72;50.57;96099.25;5017398;28;20244;-79
2022/07/16 00:33:10;;;;;;;5.90;2.80;;;;;;;14.69;50.74;96103.03;5017646;28;20178;-79
2022/07/16 00:35:35;;;;;;;4.65;2.65;;;;;;;14.70;50.73;96102.03;5017135;28;20181;-79
2022/07/16 00:38:01;;;;;;;2.80;2.45;;;;;;;14.60;50.36;96111.00;5017835;28;20194;-79
2022/07/16 00:40:26;;;;;;;2.95;2.70;;;;;;;14.48;51.43;96112.25;5017658;28;20202;-79
2022/07/16 00:42:51;;;;;;;3.15;2.67;;;;;;;14.39;51.89;96104.34;5021140;28;20622;-79
2022/07/16 00:45:17;;;;;;;2.97;2.67;;;;;;;14.39;51.07;96104.34;5036523;28;20215;-79
2022/07/16 00:47:42;;;;;;;4.60;2.75;;;;;;;14.39;51.07;96103.53;5037386;28;20185;-79
2022/07/16 00:50:07;;;;;;;5.07;2.60;;;;;;;14.31;52.19;96100.88;5037101;28;20177;-80
2022/07/16 00:52:36;;;;;;;2.72;2.35;;;;;;;14.18;52.79;96106.56;5055446;28;20202;-79
2022/07/16 00:55:02;;;;;;;7.25;3.05;;;;;;;14.19;51.99;96102.97;5019155;28;20174;-80
2022/07/16 00:57:28;;;;;;;4.28;2.38;;;;;;;14.28;51.66;96101.22;5036618;28;20823;-78
2022/07/16 00:59:53;;;;;;;3.67;2.70;;;;;;;14.15;51.88;96104.25;5036694;28;20186;-79
2022/07/16 01:02:18;;;;;;;6.75;2.55;;;;;;;13.99;53.32;96101.56;5036997;28;20214;-79
2022/07/16 01:04:44;;;;;;;2.88;2.38;;;;;;;13.93;53.30;96103.00;5036048;28;20244;-79
2022/07/16 01:07:09;;;;;;;2.60;2.40;;;;;;;13.92;53.06;96097.94;5036293;28;20263;-79
2022/07/16 01:09:35;;;;;;;4.13;2.47;;;;;;;13.94;52.48;96101.19;5036582;28;20233;-79
2022/07/16 01:12:00;;;;;;;5.20;2.80;;;;;;;13.93;53.12;96099.56;5035590;28;20208;-79
2022/07/16 01:14:26;;;;;;;3.53;2.53;;;;;;;13.91;52.74;96102.34;5053954;28;20174;-80
2022/07/16 01:16:52;;;;;;;5.03;2.45;;;;;;;13.87;52.72;96101.84;5036652;28;20235;-79
2022/07/16 01:19:17;;;;;;;3.53;2.15;;;;;;;13.81;52.86;96104.22;5033228;28;20247;-79
2022/07/16 01:21:43;;;;;;;3.83;2.38;;;;;;;13.83;52.06;96103.09;5016556;28;20214;-79
2022/07/16 01:24:08;;;;;;;3.03;2.25;;;;;;;13.88;52.64;96108.69;5034264;28;20206;-78
2022/07/16 01:26:34;;;;;;;2.60;2.37;;;;;;;13.81;52.99;96093.78;5016710;28;20190;-78
2022/07/16 01:28:59;;;;;;;4.22;2.35;;;;;;;13.74;53.46;96097.97;5016220;28;20179;-78
2022/07/16 01:31:25;;;;;;;2.70;2.40;;;;;;;13.72;53.18;96100.75;5016625;28;20293;-78
2022/07/16 01:36:34;;;;;;;2.92;2.25;;;;;;;13.77;52.18;96102.88;5019672;28;20229;-80
2022/07/16 01:39:00;;;;;;;5.85;2.47;;;;;;;13.77;52.32;96105.50;5016857;28;20178;-79
2022/07/16 01:41:25;;;;;;;4.23;2.57;;;;;;;13.74;52.29;96103.19;5016367;28;20202;-80
2022/07/16 01:43:50;;;;;;;3.88;2.55;;;;;;;13.72;52.40;96103.38;5033718;28;20182;-79
2022/07/16 01:46:16;;;;;;;3.70;2.40;;;;;;;13.73;52.19;96104.19;5016714;28;20178;-80
2022/07/16 01:48:41;;;;;;;3.35;2.38;;;;;;;13.73;52.15;96091.94;4999636;28;20178;-80
2022/07/16 01:51:06;;;;;;;4.10;2.25;;;;;;;13.66;52.74;96096.13;5018352;28;20217;-79
2022/07/16 01:53:32;;;;;;;2.70;2.38;;;;;;;13.60;52.87;96091.53;5033457;28;20181;-80
2022/07/16 01:55:58;;;;;;;2.85;2.35;;;;;;;13.57;53.20;96095.25;5041173;28;20234;-81
2022/07/16 01:58:24;;;;;;;4.72;2.58;;;;;;;13.58;52.87;96094.28;5041427;28;20170;-80
2022/07/16 02:00:49;;;;;;;2.50;2.30;;;;;;;13.67;52.61;96097.75;5057423;28;20171;-80
2022/07/16 02:03:14;;;;;;;4.07;2.10;;;;;;;13.66;52.42;96093.53;5049226;28;20277;-79
2022/07/16 02:05:40;;;;;;;4.10;2.60;;;;;;;13.66;51.85;96085.69;5017228;28;20210;-79
2022/07/16 02:08:06;;;;;;;2.75;2.08;;;;;;;13.64;52.05;96090.25;5000089;28;20268;-79
2022/07/16 02:10:32;;;;;;;4.00;2.40;;;;;;;13.64;52.39;96092.88;5016278;28;20281;-80
2022/07/16 02:12:58;;;;;;;3.28;2.28;;;;;;;13.60;52.08;96096.72;5015360;28;20190;-80
2022/07/16 02:15:23;;;;;;;4.32;2.83;;;;;;;13.59;52.44;96095.91;5016218;28;20178;-80
2022/07/16 02:17:49;;;;;;;4.05;2.25;;;;;;;13.59;52.89;96090.69;4999965;28;20285;-80
2022/07/16 02:20:14;;;;;;;6.13;2.72;;;;;;;13.60;52.86;96096.72;5016264;28;20272;-79
2022/07/16 02:22:39;;;;;;;3.67;2.40;;;;;;;13.52;52.49;96091.50;4999579;28;20209;-79
2022/07/16 02:25:06;;;;;;;4.27;2.37;;;;;;;13.46;52.71;96094.69;5015431;28;20222;-80
2022/07/16 02:27:32;;;;;;;2.97;2.03;;;;;;;13.41;53.19;96089.09;5033891;28;20260;-80
2022/07/16 02:29:58;;;;;;;3.90;2.40;;;;;;;13.37;52.91;96085.16;5016017;28;20174;-79
2022/07/16 02:32:23;;;;;;;5.03;2.60;;;;;;;13.36;53.06;96083.53;5015526;28;20198;-79
2022/07/16 02:34:49;;;;;;;3.73;2.17;;;;;;;13.32;52.67;96081.22;5031423;28;20193;-80
2022/07/16 02:37:14;;;;;;;3.30;2.10;;;;;;;13.28;52.72;96082.50;5015343;28;20461;-79
2022/07/16 02:39:40;;;;;;;3.27;2.10;;;;;;;13.28;52.81;96086.91;5015525;28;20179;-79
2022/07/16 02:42:05;;;;;;;4.20;2.38;;;;;;;13.26;52.68;96083.63;5015058;28;20205;-80
2022/07/16 02:44:31;;;;;;;3.73;2.10;;;;;;;13.22;53.42;96088.31;5014882;28;20242;-80
2022/07/16 02:46:56;;;;;;;4.07;2.47;;;;;;;13.21;53.29;96086.66;5015364;28;20182;-79
2022/07/16 02:49:21;;;;;;;3.43;2.27;;;;;;;13.21;53.21;96080.63;5016061;28;20189;-80
2022/07/16 02:51:47;;;;;;;2.08;1.80;;;;;;;13.25;53.58;96084.56;5015197;28;20264;-79
2022/07/16 02:54:12;;;;;;;5.93;2.58;;;;;;;13.20;53.39;96092.84;5014741;28;20178;-79
2022/07/16 02:56:37;;;;;;;4.07;2.10;;;;;;;13.22;52.99;96087.50;5015374;28;20221;-79
2022/07/16 02:59:03;;;;;;;3.80;2.20;;;;;;;13.16;53.42;96094.09;5015128;28;20198;-79
2022/07/16 03:01:28;;;;;;;4.03;2.37;;;;;;;13.11;53.21;96088.50;5015220;28;20202;-80
2022/07/16 03:03:53;;;;;;;2.47;2.27;;;;;;;13.11;53.88;96091.13;5032099;28;20183;-79
2022/07/16 03:06:19;;;;;;;3.07;2.27;;;;;;;13.07;54.11;96087.16;5015676;28;20262;-79
2022/07/16 03:08:44;;;;;;;3.30;2.13;;;;;;;13.04;53.78;96090.06;5033907;28;20179;-80
2022/07/16 03:11:09;;;;;;;3.90;1.83;;;;;;;12.99;53.92;96082.72;5015566;28;20201;-80
2022/07/16 03:13:35;;;;;;;2.03;1.83;;;;;;;12.95;54.65;96098.78;5014786;28;20193;-79
2022/07/16 03:16:01;;;;;;;2.97;2.30;;;;;;;12.93;54.19;96088.53;5015346;28;20166;-80
2022/07/16 03:18:26;;;;;;;4.87;2.30;;;;;;;12.90;54.58;96086.22;5015890;28;20228;-80
2022/07/16 03:20:51;;;;;;;4.43;2.20;;;;;;;12.91;54.04;96087.03;5035299;28;20178;-80
2022/07/16 03:23:17;;;;;;;2.10;1.40;;;;;;;13.03;53.38;96088.44;5019330;28;20752;-79
2022/07/16 03:25:42;;;;;;;3.33;1.93;;;;;;;13.07;53.13;96089.78;5018356;28;20415;-80
2022/07/16 03:28:08;;;;;;;5.00;2.20;;;;;;;13.07;52.97;96089.78;5018674;28;20181;-79
2022/07/16 03:30:35;;;;;;;3.67;2.30;;;;;;;13.15;52.61;96074.19;5018885;28;20185;-79
2022/07/16 03:33:00;;;;;;;4.43;2.83;;;;;;;13.20;52.32;96085.03;5019040;28;20209;-80
2022/07/16 03:35:25;;;;;;;4.67;2.40;;;;;;;13.20;52.28;96079.81;5019056;28;20174;-79
2022/07/16 03:40:34;;;;;;;6.07;2.60;;;;;;;13.24;52.41;96091.56;5021269;28;20571;-79
2022/07/16 03:43:00;;;;;;;4.00;2.17;;;;;;;13.27;52.22;96091.28;5018169;28;20202;-79
2022/07/16 03:45:25;;;;;;;3.37;2.10;;;;;;;13.21;52.14;96088.47;5018115;28;20206;-80
2022/07/16 03:47:50;;;;;;;4.27;2.20;;;;;;;13.24;52.23;96091.56;5019312;28;20233;-80
2022/07/16 03:50:16;;;;;;;3.97;2.17;;;;;;;13.40;51.78;96095.28;5036566;28;20703;-80
2022/07/16 03:52:41;;;;;;;8.17;2.40;;;;;;;13.35;51.73;96092.34;5038661;28;20198;-80
2022/07/16 03:55:07;;;;;;;3.30;1.97;;;;;;;13.42;51.30;96094.16;5038006;28;20780;-80
2022/07/16 03:57:32;;;;;;;3.13;1.93;;;;;;;13.48;51.11;96101.38;5038947;28;20182;-80
2022/07/16 03:59:58;;;;;;;4.90;2.07;;;;;;;13.47;51.09;96099.75;5021926;28;20756;-79
2022/07/16 04:02:23;;;;;;;4.40;2.10;;;;;;;13.56;51.26;96105.84;5038655;28;20229;-79
2022/07/16 04:04:48;;;;;;;3.40;2.23;;;;;;;14.06;49.91;96102.59;5037322;28;20221;-80
2022/07/16 04:07:13;;;;;;;3.70;2.20;;;;;;;15.16;46.53;96112.91;5038226;28;20182;-80
2022/07/16 04:09:39;;;;;;;2.90;2.20;;;;;;;16.32;43.86;96102.16;5021312;28;20530;-79
2022/07/16 04:12:04;;;;;;;3.28;2.35;;;;;;;16.77;42.38;96105.91;5037309;28;20213;-79
2022/07/16 04:14:29;;;;;;;2.90;2.50;;;;;;;17.60;40.51;96111.25;5037700;28;20209;-80
2022/07/16 04:16:55;;;;;;;3.88;2.47;;;;;;;18.39;38.42;96109.00;5037675;28;20219;-79
2022/07/16 04:19:20;;;;;;;4.60;2.28;;;;;;;18.96;37.63;96111.75;5021442;28;20178;-79
2022/07/16 04:21:45;;;;;;;4.57;2.13;;;;;;;19.39;37.11;96113.59;5037993;28;20255;-80
2022/07/16 04:24:10;;;;;;;3.15;1.80;;;;;;;19.45;36.30;96105.75;5037396;28;20212;-79
2022/07/16 04:26:36;;;;;;;3.08;1.90;;;;;;;18.44;38.74;96113.69;5037723;28;20254;-80
2022/07/16 04:29:01;;;;;;;7.05;2.15;;;;;;;17.69;39.43;96112.00;5037882;28;20180;-79
2022/07/16 04:31:26;;;;;;;2.42;1.95;;;;;;;17.30;40.77;96118.19;5020237;28;20205;-80
2022/07/16 04:33:52;;;;;;;3.08;2.10;;;;;;;16.89;42.09;96115.03;5037313;28;20204;-79
2022/07/16 04:36:17;;;;;;;4.55;2.15;;;;;;;18.06;40.39;96109.34;5037111;28;20178;-80
2022/07/16 04:38:42;;;;;;;3.67;2.20;;;;;;;19.66;36.67;96122.56;5037763;28;20856;-80
2022/07/16 04:41:08;;;;;;;3.40;2.17;;;;;;;20.87;34.11;96118.69;5020462;28;20201;-80
2022/07/16 04:43:33;;;;;;;3.83;2.30;;;;;;;21.97;32.31;96117.41;5036807;28;20177;-80
2022/07/16 04:45:58;;;;;;;2.78;1.80;;;;;;;23.11;30.52;96123.03;5036303;28;20285;-79
2022/07/16 04:48:24;;;;;;;4.65;2.30;;;;;;;23.29;29.61;96121.53;5036857;28;20249;-80
2022/07/16 04:50:49;;;;;;;4.63;2.15;;;;;;;23.36;29.87;96124.94;5037142;28;20189;-80
2022/07/16 04:53:14;;;;;;;3.55;2.15;;;;;;;23.98;28.50;96121.47;5018636;28;20277;-80
2022/07/16 04:55:40;;;;;;;2.53;2.00;;;;;;;24.01;28.45;96122.84;5036548;28;20231;-80
2022/07/16 04:58:05;;;;;;;4.53;2.03;;;;;;;24.64;28.40;96127.97;5055867;28;20182;-80
2022/07/16 05:00:30;;;;;;;3.30;1.83;;;;;;;24.08;28.36;96128.91;5054858;28;20680;-80
2022/07/16 05:02:56;;;;;;;2.30;1.60;;;;;;;24.07;28.97;96131.78;5036896;28;20627;-79
2022/07/16 05:05:21;;;;;;;5.68;1.92;;;;;;;24.25;28.78;96131.81;5054492;28;20380;-80
2022/07/16 05:07:47;;;;;;;4.43;1.65;;;;;;;24.56;28.36;96137.06;5021875;28;20224;-80
2022/07/16 05:10:13;;;;;;;6.53;1.92;;;;;;;24.60;28.15;96132.09;5036595;28;20182;-80
2022/07/16 05:12:38;;;;;;;5.63;2.50;;;;;;;24.88;27.83;96138.75;5036445;28;20201;-80
2022/07/16 05:15:04;;;;;;;3.42;2.17;;;;;;;25.61;26.71;96138.59;5036138;28;20650;-80
2022/07/16 05:17:29;;;;;;;4.22;1.67;;;;;;;25.94;26.23;96146.09;5020085;28;20613;-80
2022/07/16 05:19:54;;;;;;;4.57;2.00;;;;;;;26.27;26.29;96138.38;5020126;28;20178;-80
2022/07/16 05:22:19;;;;;;;2.15;1.92;;;;;;;26.92;25.43;96137.38;5036257;28;20198;-80
2022/07/16 05:24:45;;;;;;;3.38;1.70;;;;;;;27.51;25.16;96143.34;5035782;28;20228;-80
2022/07/16 05:27:10;;;;;;;3.38;2.10;;;;;;;28.04;24.82;96143.97;5019695;28;20216;-80
2022/07/16 05:29:35;;;;;;;2.80;2.00;;;;;;;29.18;23.50;96144.25;5019694;28;20222;-81
2022/07/16 05:32:01;;;;;;;3.75;2.10;;;;;;;28.65;23.55;96147.56;5036391;28;20198;-80
2022/07/16 05:34:26;;;;;;;2.30;1.80;;;;;;;28.63;23.97;96139.81;5035228;28;20666;-80
2022/07/16 05:36:51;;;;;;;2.28;1.90;;;;;;;28.21;24.66;96147.44;5035853;28;20227;-81
2022/07/16 05:39:16;;;;;;;3.60;2.00;;;;;;;28.79;24.69;96144.28;5054205;28;20174;-81
2022/07/16 05:41:42;;;;;;;2.05;1.70;;;;;;;29.00;23.27;96140.03;5053999;28;20554;-81
2022/07/16 05:44:07;;;;;;;2.45;1.90;;;;;;;29.29;22.52;96139.81;5019144;28;20186;-81
2022/07/16 05:46:32;;;;;;;5.20;2.00;;;;;;;29.04;23.08;96146.50;5036406;28;20177;-80
2022/07/16 05:48:59;;;;;;;2.55;1.98;;;;;;;29.36;22.52;96145.78;5036222;28;20209;-80
2022/07/16 05:51:24;;;;;;;4.78;2.30;;;;;;;30.23;20.79;96157.34;5018893;28;20193;-80
2022/07/16 05:53:49;;;;;;;2.97;1.88;;;;;;;30.04;21.26;96157.69;5053607;28;20232;-80
2022/07/16 05:56:14;;;;;;;3.28;1.73;;;;;;;29.54;21.14;96156.16;5035302;28;20186;-80
2022/07/16 05:58:40;;;;;;;3.85;1.98;;;;;;;30.40;19.62;96163.34;5052045;28;20220;-80
2022/07/16 06:01:05;;;;;;;3.88;1.85;;;;;;;29.84;19.71;96161.00;5035606;28;20210;-81
2022/07/16 06:03:30;;;;;;;2.97;2.10;;;;;;;29.45;20.24;96157.66;5018538;28;20189;-79
2022/07/16 06:05:56;;;;;;;5.00;1.83;;;;;;;31.23;18.37;96158.97;5017293;28;20709;-79
2022/07/16 06:08:21;;;;;;;2.10;1.67;;;;;;;31.08;18.30;96158.88;5018711;28;20182;-79
2022/07/16 06:10:46;;;;;;;3.60;1.60;;;;;;;31.71;17.22;96166.88;5018390;28;20174;-79
2022/07/16 06:13:12;;;;;;;2.67;2.00;;;;;;;31.84;16.71;96163.72;5018278;28;20185;-79
2022/07/16 06:15:37;;;;;;;2.50;1.70;;;;;;;29.70;18.91;96161.69;5034267;28;20253;-79
2022/07/16 06:18:03;;;;;;;3.22;1.73;;;;;;;30.36;19.30;96168.41;5054060;28;20205;-79
2022/07/16 06:20:28;;;;;;;2.67;1.65;;;;;;;30.83;18.24;96169.50;5035047;28;20180;-79
2022/07/16 06:22:56;;;;;;;2.55;1.70;;;;;;;30.55;19.02;96176.00;5019630;28;20724;-78
2022/07/16 06:25:22;;;;;;;4.20;1.77;;;;;;;29.99;19.89;96167.53;5035163;28;20612;-79
2022/07/16 06:27:47;;;;;;;2.63;1.73;;;;;;;30.41;19.33;96173.00;5051631;28;20178;-79
2022/07/16 06:30:13;;;;;;;4.53;1.83;;;;;;;30.07;19.24;96169.75;5035158;28;20209;-78
2022/07/16 06:32:39;;;;;;;4.70;1.67;;;;;;;31.42;18.04;96175.41;5018465;28;20201;-79
2022/07/16 06:35:05;;;;;;;4.20;1.90;;;;;;;30.95;17.91;96175.47;5013370;28;20182;-79
2022/07/16 06:37:31;;;;;;;4.53;2.17;;;;;;;29.58;19.73;96177.88;5025589;28;20650;-79
2022/07/16 06:39:56;;;;;;;2.88;1.88;;;;;;;30.19;19.94;96178.44;5034736;28;20178;-79
2022/07/16 06:42:21;;;;;;;5.03;1.83;;;;;;;29.70;19.93;96180.41;5053903;28;20193;-79
2022/07/16 06:44:46;;;;;;;3.17;1.80;;;;;;;30.55;18.77;96184.06;5034931;28;20248;-78
2022/07/16 06:47:12;;;;;;;3.53;1.80;;;;;;;27.94;21.23;96177.47;5036252;28;20645;-79
2022/07/16 06:49:37;;;;;;;4.72;1.75;;;;;;;29.25;20.42;96182.31;5035397;28;20231;-78
2022/07/16 06:52:02;;;;;;;4.05;1.60;;;;;;;29.12;19.68;96187.22;5036341;28;20688;-79
2022/07/16 06:54:28;;;;;;;3.92;1.67;;;;;;;28.89;20.25;96175.72;5035730;28;20223;-80
2022/07/16 06:56:53;;;;;;;3.65;2.03;;;;;;;29.08;21.11;96184.25;5020165;28;20188;-80
2022/07/16 06:59:18;;;;;;;2.38;1.45;;;;;;;28.89;20.05;96183.75;5036062;28;20463;-80
2022/07/16 07:01:44;;;;;;;2.47;1.90;;;;;;;27.51;24.12;96175.34;5036246;28;20197;-80
2022/07/16 07:04:09;;;;;;;4.70;2.53;;;;;;;27.19;24.65;96187.50;5036740;28;20174;-79
2022/07/16 07:06:34;;;;;;;3.15;2.03;;;;;;;28.57;23.12;96193.41;5035964;28;20499;-80
2022/07/16 07:09:00;;;;;;;5.15;1.98;;;;;;;28.38;22.51;96190.19;5036020;28;20661;-80
2022/07/16 07:11:25;;;;;;;4.63;2.17;;;;;;;27.49;23.98;96193.44;5036042;28;20233;-80
2022/07/16 07:13:50;;;;;;;3.53;1.92;;;;;;;29.86;20.68;96198.22;5034247;28;20224;-79
2022/07/16 07:16:16;;;;;;;4.47;1.80;;;;;;;27.51;22.30;96199.34;5036005;28;20178;-82
2022/07/16 07:18:41;;;;;;;4.07;1.80;;;;;;;27.81;21.38;96198.31;5018221;28;20212;-79
2022/07/16 07:21:07;;;;;;;3.13;1.50;;;;;;;29.20;20.05;96203.66;5032921;28;20205;-79
2022/07/16 07:23:32;;;;;;;2.83;1.80;;;;;;;27.88;20.69;96204.31;5018922;28;20264;-78
2022/07/16 07:25:57;;;;;;;4.65;1.55;;;;;;;27.68;21.11;96199.44;5070546;28;20217;-77
2022/07/16 07:28:23;;;;;;;3.38;1.80;;;;;;;27.66;22.53;96204.19;5042601;28;20190;-77
2022/07/16 07:30:48;;;;;;;5.03;1.85;;;;;;;27.96;22.21;96192.44;5042153;28;20194;-77
2022/07/16 07:33:14;;;;;;;4.18;1.70;;;;;;;27.11;22.75;96194.03;5075485;28;20174;-77
2022/07/16 07:35:40;;;;;;;2.55;1.60;;;;;;;26.04;23.81;96194.25;5043401;28;20185;-78
2022/07/16 07:38:05;;;;;;;2.30;1.92;;;;;;;26.22;22.71;96203.97;5052632;28;20178;-78
2022/07/16 07:40:30;;;;;;;4.60;2.42;;;;;;;25.35;24.54;96196.41;5035348;28;20174;-79
2022/07/16 07:42:56;;;;;;;4.22;1.95;;;;;;;27.19;23.01;96198.19;5019326;28;20209;-78
2022/07/16 07:45:21;;;;;;;3.75;1.77;;;;;;;27.52;21.83;96210.81;5051214;28;20205;-78
2022/07/16 07:47:47;;;;;;;2.13;1.48;;;;;;;27.15;22.45;96197.84;5034079;28;20178;-78
2022/07/16 07:50:13;;;;;;;6.03;1.98;;;;;;;26.17;23.33;96203.88;5050893;28;20608;-78
2022/07/16 07:52:39;;;;;;;5.30;1.90;;;;;;;25.48;24.95;96200.75;5015780;28;20197;-78
2022/07/16 07:55:04;;;;;;;2.92;1.80;;;;;;;25.91;24.77;96197.13;5049953;28;20178;-78
2022/07/16 07:57:30;;;;;;;3.70;1.80;;;;;;;25.79;24.59;96197.06;5051699;28;20236;-78
2022/07/16 07:59:55;;;;;;;3.38;1.60;;;;;;;26.20;23.50;96201.56;5042408;28;20190;-78
2022/07/16 08:02:20;;;;;;;2.13;1.48;;;;;;;25.91;24.08;96197.13;5017928;28;20209;-77
2022/07/16 08:04:46;;;;;;;8.45;1.77;;;;;;;24.32;26.31;96203.47;5053735;28;20833;-78
2022/07/16 08:07:11;;;;;;;3.80;1.92;;;;;;;24.70;26.26;96201.44;5033132;28;20174;-79
2022/07/16 08:09:37;;;;;;;3.47;1.83;;;;;;;24.69;26.64;96199.00;5036526;28;20665;-79
2022/07/16 08:12:02;;;;;;;3.63;1.55;;;;;;;24.60;26.51;96203.00;5052343;28;20197;-79
2022/07/16 08:14:27;;;;;;;4.22;1.75;;;;;;;22.36;29.29;96197.81;5020476;28;20170;-79
2022/07/16 08:16:53;;;;;;;3.83;1.90;;;;;;;24.37;26.64;96198.28;5036414;28;20177;-79
2022/07/16 08:19:18;;;;;;;3.58;1.40;;;;;;;24.83;25.81;96203.16;5037375;28;20239;-78
2022/07/16 08:21:44;;;;;;;3.08;1.67;;;;;;;25.16;25.34;96188.69;5064236;28;20205;-78
2022/07/16 08:26:53;;;;;;;5.22;1.70;;;;;;;24.33;26.33;96195.28;5071486;28;20333;-76
2022/07/16 08:29:18;;;;;;;3.38;1.50;;;;;;;24.61;25.50;96204.59;5033997;28;20182;-77
2022/07/16 08:31:43;;;;;;;2.78;1.80;;;;;;;24.73;25.05;96201.00;5031502;28;20209;-77
2022/07/16 08:34:09;;;;;;;2.78;1.73;;;;;;;24.94;25.08;96197.09;5013345;28;20220;-77
2022/07/16 08:36:36;;;;;;;3.45;1.50;;;;;;;24.23;26.92;96200.22;5049847;28;20186;-80
2022/07/16 08:39:01;;;;;;;4.88;1.60;;;;;;;24.27;26.37;96196.91;5049119;28;20251;-79
2022/07/16 08:41:26;;;;;;;2.25;1.42;;;;;;;24.99;25.92;96209.72;5034023;28;20201;-79
2022/07/16 08:43:52;;;;;;;2.03;1.20;;;;;;;22.98;28.00;96199.13;5037811;28;20210;-79
2022/07/16 08:46:20;;;;;;;4.55;1.50;;;;;;;22.97;28.84;96194.81;5036802;28;20217;-79
2022/07/16 08:48:47;;;;;;;2.53;1.70;;;;;;;23.80;27.12;96200.97;5035347;28;20550;-78
2022/07/16 08:51:13;;;;;;;3.15;1.60;;;;;;;23.43;27.59;96195.44;5016356;28;20222;-79
2022/07/16 08:53:39;;;;;;;3.88;1.85;;;;;;;22.55;28.95;96196.97;5024374;28;20205;-79
2022/07/16 08:56:05;;;;;;;3.10;1.48;;;;;;;23.09;28.27;96206.41;5033449;28;20544;-79
2022/07/16 08:58:31;;;;;;;3.13;1.20;;;;;;;22.79;28.38;96198.94;5051823;28;20177;-79
2022/07/16 09:00:57;;;;;;;4.00;1.58;;;;;;;22.55;28.32;96204.91;5034409;28;20185;-79
2022/07/16 09:03:22;;;;;;;2.83;1.23;;;;;;;21.97;29.57;96215.25;5032076;28;20177;-78
2022/07/16 09:05:49;;;;;;;2.45;1.35;;;;;;;21.57;30.27;96209.13;5032968;28;20209;-78
2022/07/16 09:08:16;;;;;;;2.17;1.40;;;;;;;21.62;30.89;96207.47;5033728;28;20174;-79
2022/07/16 09:10:41;;;;;;;2.42;1.52;;;;;;;21.70;30.40;96209.94;5050579;28;20203;-81
2022/07/16 09:13:09;;;;;;;3.95;1.65;;;;;;;21.69;30.45;96210.16;5016642;28;20245;-79
2022/07/16 09:15:37;;;;;;;3.83;1.60;;;;;;;21.25;30.11;96211.41;5032543;28;20202;-79
2022/07/16 09:18:16;;;;;;;1.38;1.05;;;;;;;21.89;29.90;96202.22;5034457;28;20182;-79
2022/07/16 09:20:44;;;;;;;2.15;1.30;;;;;;;22.06;30.45;96206.09;5027976;28;20263;-79
2022/07/16 09:23:18;;;;;;;4.28;1.27;;;;;;;21.96;29.65;96218.94;5069299;28;20189;-79
2022/07/16 09:25:53;;;;;;;4.28;1.20;;;;;;;21.83;29.84;96219.75;5033883;28;20220;-79
2022/07/16 09:28:19;;;;;;;5.47;1.55;;;;;;;21.47;30.50;96210.31;5032304;28;20626;-78
2022/07/16 09:30:45;;;;;;;2.72;1.40;;;;;;;22.27;30.11;96210.44;5016634;28;20218;-78
2022/07/16 09:33:16;;;;;;;3.00;1.40;;;;;;;22.83;28.42;96212.56;5016630;28;20229;-79
2022/07/16 09:35:41;;;;;;;2.70;1.20;;;;;;;22.52;29.30;96213.22;5048979;28;20171;-78
2022/07/16 09:38:10;;;;;;;1.38;1.25;;;;;;;21.89;29.19;96218.09;5033042;28;20178;-79
2022/07/16 09:40:36;;;;;;;2.70;1.52;;;;;;;21.96;30.16;96214.44;5044900;28;20189;-79
2022/07/16 09:43:04;;;;;;;1.52;1.02;;;;;;;22.48;29.86;96206.75;5035197;28;20201;-79
2022/07/16 09:45:29;;;;;;;3.78;1.40;;;;;;;22.95;28.55;96212.75;5069233;28;20202;-79
2022/07/16 09:47:55;;;;;;;4.82;1.70;;;;;;;22.46;28.81;96214.88;5019282;28;20220;-79
2022/07/16 09:50:21;;;;;;;2.25;1.30;;;;;;;22.77;29.12;96216.84;5036018;28;20253;-78
2022/07/16 09:52:46;;;;;;;3.60;1.30;;;;;;;23.12;28.55;96213.94;5053259;28;20600;-79
2022/07/16 09:55:11;;;;;;;2.80;1.25;;;;;;;22.81;29.07;96212.78;5035072;28;20177;-78
2022/07/16 09:57:37;;;;;;;2.35;1.35;;;;;;;23.23;29.43;96220.41;5032334;28;20181;-78
2022/07/16 10:00:07;;;;;;;4.82;1.17;;;;;;;23.02;28.52;96216.22;5030967;28;20174;-80
2022/07/16 10:02:32;;;;;;;2.75;1.02;;;;;;;23.35;28.60;96213.44;5053293;28;20206;-80
2022/07/16 10:04:57;;;;;;;3.67;1.30;;;;;;;23.05;28.40;96218.44;5035246;28;20212;-80
2022/07/16 10:07:23;;;;;;;3.42;1.27;;;;;;;23.30;28.07;96211.41;5034609;28;20193;-80
2022/07/16 10:09:48;;;;;;;3.28;1.70;;;;;;;23.75;27.76;96224.66;5027231;28;20177;-80
2022/07/16 10:12:15;;;;;;;2.17;1.40;;;;;;;23.14;28.32;96222.47;5047044;28;20197;-80
2022/07/16 10:14:43;;;;;;;2.22;1.40;;;;;;;23.04;28.47;96227.41;5055448;28;20180;-80
2022/07/16 10:17:17;;;;;;;4.78;1.40;;;;;;;22.75;28.84;96229.50;5033606;28;20261;-80
2022/07/16 10:19:42;;;;;;;2.80;1.38;;;;;;;22.40;29.31;96230.75;5032228;28;20171;-80
2022/07/16 10:22:30;;;;;;;3.95;1.50;;;;;;;23.46;27.89;96226.00;5034542;28;20206;-80
2022/07/16 10:24:56;;;;;;;3.83;1.45;;;;;;;23.84;27.74;96220.72;5071388;28;20200;-80
2022/07/16 10:27:24;;;;;;;1.48;1.10;;;;;;;23.70;28.18;96221.84;5038578;28;20173;-80
2022/07/16 10:29:49;;;;;;;4.28;2.13;;;;;;;24.02;27.98;96220.78;5054406;28;20194;-79
2022/07/16 10:32:27;;;;;;;3.42;1.50;;;;;;;24.12;27.61;96222.16;5054680;28;20189;-79
2022/07/16 10:34:52;;;;;;;4.68;1.48;;;;;;;24.22;27.40;96230.47;5056142;28;20165;-80
2022/07/16 10:37:33;;;;;;;2.70;1.38;;;;;;;24.38;27.54;96237.06;5054929;28;20188;-80
2022/07/16 10:40:06;;;;;;;2.38;1.48;;;;;;;23.96;27.75;96231.47;5034793;28;20196;-79
2022/07/16 10:42:32;;;;;;;4.45;1.40;;;;;;;23.85;27.48;96230.28;5020973;28;20226;-80
2022/07/16 10:44:57;;;;;;;4.95;1.55;;;;;;;23.68;28.45;96227.34;5033321;28;20247;-79
2022/07/16 10:47:43;;;;;;;2.88;1.33;;;;;;;24.47;28.06;96227.81;5051969;28;20182;-79
2022/07/16 10:50:13;;;;;;;3.17;1.40;;;;;;;23.90;27.52;96222.50;5050824;28;20186;-79
2022/07/16 10:52:42;;;;;;;5.20;1.92;;;;;;;24.28;27.90;96229.56;5035025;28;20224;-79
2022/07/16 10:55:07;;;;;;;4.63;1.77;;;;;;;23.01;28.43;96227.81;5034003;28;20177;-80
2022/07/16 10:57:43;;;;;;;3.20;1.50;;;;;;;23.96;26.57;96218.19;5034367;28;20186;-80
2022/07/16 11:00:09;;;;;;;3.80;1.55;;;;;;;24.40;27.06;96225.22;5051104;28;20173;-80
2022/07/16 11:02:41;;;;;;;2.78;1.65;;;;;;;24.57;26.45;96220.19;5051318;28;20221;-79
2022/07/16 11:05:07;;;;;;;3.28;1.55;;;;;;;24.86;26.71;96229.28;5056005;28;20198;-80
2022/07/16 11:07:35;;;;;;;1.80;1.20;;;;;;;25.02;25.43;96235.84;5034608;28;20209;-80
2022/07/16 11:10:00;;;;;;;1.92;1.38;;;;;;;24.87;24.28;96238.88;5051945;28;20196;-80
2022/07/16 11:12:29;;;;;;;3.33;1.20;;;;;;;24.92;23.48;96236.38;5052981;28;20280;-82
2022/07/16 11:14:56;;;;;;;2.83;1.70;;;;;;;24.38;25.52;96229.09;5034169;28;20689;-80
2022/07/16 11:17:24;;;;;;;4.53;1.80;;;;;;;24.72;25.96;96225.13;5034048;28;20181;-78
2022/07/16 11:19:52;;;;;;;4.28;1.20;;;;;;;24.78;24.98;96226.91;5067453;28;20637;-78
2022/07/16 11:22:20;;;;;;;2.20;1.40;;;;;;;25.19;24.91;96236.13;5023807;28;20209;-78
2022/07/16 11:24:55;;;;;;;1.67;1.17;;;;;;;25.03;24.58;96226.88;5027922;28;20229;-77
2022/07/16 11:27:31;;;;;;;3.30;1.42;;;;;;;24.65;24.09;96225.22;5012551;28;20181;-77
2022/07/16 11:29:58;;;;;;;1.85;1.25;;;;;;;24.68;24.33;96234.56;5013531;28;20185;-78
2022/07/16 11:32:24;;;;;;;3.67;1.40;;;;;;;23.55;25.46;96242.47;4997455;28;20199;-78
2022/07/16 11:34:49;;;;;;;1.90;1.50;;;;;;;23.72;25.83;96230.38;5012049;28;20253;-78
2022/07/16 11:37:14;;;;;;;2.42;1.45;;;;;;;24.27;25.01;96225.28;5013508;28;20266;-78
2022/07/16 11:39:40;;;;;;;1.30;1.20;;;;;;;23.94;25.24;96229.03;5014872;28;20206;-78
2022/07/16 11:42:06;;;;;;;2.28;1.40;;;;;;;24.36;25.91;96229.34;5001204;28;20200;-78